sensor_id;sensor_type;location;lat;lon;timestamp;P1;durP1;ratioP1;P2;durP2;ratioP2
9860;SDS011;4969;52.304;4.968;2024-03-08T00:00:58;14.63;;;13.15;;
9860;SDS011;4969;52.304;4.968;2024-03-08T00:03:25;19.13;;;16.63;;
9860;SDS011;4969;52.304;4.968;2024-03-08T00:05:53;15.65;;;13.98;;
9860;SDS011;4969;52.304;4.968;2024-03-08T00:08:20;16.73;;;14.95;;
9860;SDS011;4969;52.304;4.968;2024-03-08T00:10:46;16.70;;;14.63;;
9860;SDS011;4969;52.304;4.968;2024-03-08T00:13:13;15.88;;;14.15;;
9860;SDS011;4969;52.304;4.968;2024-03-08T00:15:39;15.80;;;14.18;;
9860;SDS011;4969;52.304;4.968;2024-03-08T00:18:07;16.75;;;14.75;;
9860;SDS011;4969;52.304;4.968;2024-03-08T00:20:34;14.80;;;13.20;;
9860;SDS011;4969;52.304;4.968;2024-03-08T00:23:02;16.83;;;15.10;;
9860;SDS011;4969;52.304;4.968;2024-03-08T00:25:28;15.65;;;13.80;;
9860;SDS011;4969;52.304;4.968;2024-03-08T00:27:55;17.00;;;15.23;;
9860;SDS011;4969;52.304;4.968;2024-03-08T00:30:22;18.20;;;15.85;;
9860;SDS011;4969;52.304;4.968;2024-03-08T00:32:50;16.15;;;14.10;;
9860;SDS011;4969;52.304;4.968;2024-03-08T00:35:16;16.65;;;14.90;;
9860;SDS011;4969;52.304;4.968;2024-03-08T00:37:44;18.02;;;15.95;;
9860;SDS011;4969;52.304;4.968;2024-03-08T00:40:13;15.18;;;13.57;;
9860;SDS011;4969;52.304;4.968;2024-03-08T00:42:40;16.13;;;13.98;;
9860;SDS011;4969;52.304;4.968;2024-03-08T00:45:09;19.73;;;15.70;;
9860;SDS011;4969;52.304;4.968;2024-03-08T00:47:36;17.17;;;15.43;;
9860;SDS011;4969;52.304;4.968;2024-03-08T00:50:03;15.32;;;13.68;;
9860;SDS011;4969;52.304;4.968;2024-03-08T00:52:30;16.35;;;14.35;;
9860;SDS011;4969;52.304;4.968;2024-03-08T00:54:57;16.33;;;14.63;;
9860;SDS011;4969;52.304;4.968;2024-03-08T00:57:25;15.82;;;13.98;;
9860;SDS011;4969;52.304;4.968;2024-03-08T00:59:51;16.67;;;13.13;;
9860;SDS011;4969;52.304;4.968;2024-03-08T01:02:18;17.83;;;15.77;;
9860;SDS011;4969;52.304;4.968;2024-03-08T01:04:45;16.00;;;14.40;;
9860;SDS011;4969;52.304;4.968;2024-03-08T01:07:12;15.00;;;13.48;;
9860;SDS011;4969;52.304;4.968;2024-03-08T01:09:39;14.40;;;12.38;;
9860;SDS011;4969;52.304;4.968;2024-03-08T01:12:06;15.35;;;13.82;;
9860;SDS011;4969;52.304;4.968;2024-03-08T01:14:34;15.10;;;13.52;;
9860;SDS011;4969;52.304;4.968;2024-03-08T01:17:01;15.73;;;14.05;;
9860;SDS011;4969;52.304;4.968;2024-03-08T01:19:27;13.45;;;12.13;;
9860;SDS011;4969;52.304;4.968;2024-03-08T01:21:54;16.30;;;14.50;;
9860;SDS011;4969;52.304;4.968;2024-03-08T01:24:21;15.77;;;13.63;;
9860;SDS011;4969;52.304;4.968;2024-03-08T01:26:48;15.57;;;13.90;;
9860;SDS011;4969;52.304;4.968;2024-03-08T01:29:15;16.50;;;14.75;;
9860;SDS011;4969;52.304;4.968;2024-03-08T01:31:43;15.43;;;13.90;;
9860;SDS011;4969;52.304;4.968;2024-03-08T01:34:10;18.75;;;14.73;;
9860;SDS011;4969;52.304;4.968;2024-03-08T01:36:36;15.70;;;14.10;;
9860;SDS011;4969;52.304;4.968;2024-03-08T01:39:03;15.27;;;13.60;;
9860;SDS011;4969;52.304;4.968;2024-03-08T01:41:33;15.65;;;14.05;;
9860;SDS011;4969;52.304;4.968;2024-03-08T01:44:00;14.90;;;13.30;;
9860;SDS011;4969;52.304;4.968;2024-03-08T01:46:27;15.55;;;13.98;;
9860;SDS011;4969;52.304;4.968;2024-03-08T01:48:56;16.10;;;14.40;;
9860;SDS011;4969;52.304;4.968;2024-03-08T01:51:23;15.57;;;13.98;;
9860;SDS011;4969;52.304;4.968;2024-03-08T01:53:49;15.05;;;13.50;;
9860;SDS011;4969;52.304;4.968;2024-03-08T01:56:16;16.45;;;14.90;;
9860;SDS011;4969;52.304;4.968;2024-03-08T01:58:44;16.15;;;14.52;;
9860;SDS011;4969;52.304;4.968;2024-03-08T02:01:12;14.43;;;12.93;;
9860;SDS011;4969;52.304;4.968;2024-03-08T02:03:39;14.82;;;13.05;;
9860;SDS011;4969;52.304;4.968;2024-03-08T02:06:10;15.57;;;14.00;;
9860;SDS011;4969;52.304;4.968;2024-03-08T02:08:39;16.83;;;14.13;;
9860;SDS011;4969;52.304;4.968;2024-03-08T02:11:08;15.07;;;13.57;;
9860;SDS011;4969;52.304;4.968;2024-03-08T02:13:35;16.20;;;14.50;;
9860;SDS011;4969;52.304;4.968;2024-03-08T02:16:02;14.63;;;13.13;;
9860;SDS011;4969;52.304;4.968;2024-03-08T02:18:30;15.25;;;13.60;;
9860;SDS011;4969;52.304;4.968;2024-03-08T02:21:01;14.38;;;12.98;;
9860;SDS011;4969;52.304;4.968;2024-03-08T02:23:28;14.93;;;13.50;;
9860;SDS011;4969;52.304;4.968;2024-03-08T02:25:56;14.80;;;13.40;;
9860;SDS011;4969;52.304;4.968;2024-03-08T02:28:23;16.08;;;14.48;;
9860;SDS011;4969;52.304;4.968;2024-03-08T02:30:51;15.73;;;14.15;;
9860;SDS011;4969;52.304;4.968;2024-03-08T02:33:19;15.27;;;13.77;;
9860;SDS011;4969;52.304;4.968;2024-03-08T02:35:46;16.83;;;15.15;;
9860;SDS011;4969;52.304;4.968;2024-03-08T02:38:15;19.23;;;15.25;;
9860;SDS011;4969;52.304;4.968;2024-03-08T02:40:43;16.95;;;15.15;;
9860;SDS011;4969;52.304;4.968;2024-03-08T02:43:11;17.27;;;15.57;;
9860;SDS011;4969;52.304;4.968;2024-03-08T02:45:38;13.95;;;12.65;;
9860;SDS011;4969;52.304;4.968;2024-03-08T02:48:05;14.48;;;13.13;;
9860;SDS011;4969;52.304;4.968;2024-03-08T02:50:32;16.10;;;14.40;;
9860;SDS011;4969;52.304;4.968;2024-03-08T02:52:59;15.18;;;13.57;;
9860;SDS011;4969;52.304;4.968;2024-03-08T02:55:27;17.33;;;15.25;;
9860;SDS011;4969;52.304;4.968;2024-03-08T02:57:54;16.80;;;15.20;;
9860;SDS011;4969;52.304;4.968;2024-03-08T03:00:21;15.48;;;13.88;;
9860;SDS011;4969;52.304;4.968;2024-03-08T03:02:49;16.85;;;13.65;;
9860;SDS011;4969;52.304;4.968;2024-03-08T03:05:18;16.92;;;15.10;;
9860;SDS011;4969;52.304;4.968;2024-03-08T03:07:45;15.93;;;14.07;;
9860;SDS011;4969;52.304;4.968;2024-03-08T03:10:12;14.27;;;12.77;;
9860;SDS011;4969;52.304;4.968;2024-03-08T03:12:43;15.20;;;13.63;;
9860;SDS011;4969;52.304;4.968;2024-03-08T03:15:10;15.43;;;13.95;;
9860;SDS011;4969;52.304;4.968;2024-03-08T03:17:38;15.63;;;14.13;;
9860;SDS011;4969;52.304;4.968;2024-03-08T03:20:05;16.42;;;14.63;;
9860;SDS011;4969;52.304;4.968;2024-03-08T03:22:36;15.48;;;13.93;;
9860;SDS011;4969;52.304;4.968;2024-03-08T03:25:03;16.75;;;14.98;;
9860;SDS011;4969;52.304;4.968;2024-03-08T03:27:31;16.75;;;14.20;;
9860;SDS011;4969;52.304;4.968;2024-03-08T03:29:59;16.02;;;14.07;;
9860;SDS011;4969;52.304;4.968;2024-03-08T03:32:45;15.52;;;13.85;;
9860;SDS011;4969;52.304;4.968;2024-03-08T03:35:13;15.27;;;13.73;;
9860;SDS011;4969;52.304;4.968;2024-03-08T03:37:39;16.08;;;14.48;;
9860;SDS011;4969;52.304;4.968;2024-03-08T03:40:08;16.30;;;14.60;;
9860;SDS011;4969;52.304;4.968;2024-03-08T03:42:35;16.27;;;14.50;;
9860;SDS011;4969;52.304;4.968;2024-03-08T03:45:05;16.58;;;14.80;;
9860;SDS011;4969;52.304;4.968;2024-03-08T03:47:32;17.38;;;15.50;;
9860;SDS011;4969;52.304;4.968;2024-03-08T03:49:58;17.83;;;16.02;;
9860;SDS011;4969;52.304;4.968;2024-03-08T03:52:27;16.70;;;13.95;;
9860;SDS011;4969;52.304;4.968;2024-03-08T03:54:53;15.07;;;13.57;;
9860;SDS011;4969;52.304;4.968;2024-03-08T03:57:20;16.85;;;15.25;;
9860;SDS011;4969;52.304;4.968;2024-03-08T03:59:48;15.65;;;14.15;;
9860;SDS011;4969;52.304;4.968;2024-03-08T04:02:17;16.45;;;14.75;;
9860;SDS011;4969;52.304;4.968;2024-03-08T04:04:45;15.77;;;14.18;;
9860;SDS011;4969;52.304;4.968;2024-03-08T04:07:12;14.88;;;13.38;;
9860;SDS011;4969;52.304;4.968;2024-03-08T04:09:39;14.43;;;13.13;;
9860;SDS011;4969;52.304;4.968;2024-03-08T04:12:06;14.95;;;13.45;;
9860;SDS011;4969;52.304;4.968;2024-03-08T04:14:34;16.67;;;15.07;;
9860;SDS011;4969;52.304;4.968;2024-03-08T04:17:01;16.25;;;14.75;;
9860;SDS011;4969;52.304;4.968;2024-03-08T04:19:29;15.20;;;13.65;;
9860;SDS011;4969;52.304;4.968;2024-03-08T04:21:56;15.77;;;14.20;;
9860;SDS011;4969;52.304;4.968;2024-03-08T04:24:23;15.13;;;13.73;;
9860;SDS011;4969;52.304;4.968;2024-03-08T04:26:50;17.73;;;15.95;;
9860;SDS011;4969;52.304;4.968;2024-03-08T04:29:17;17.50;;;15.90;;
9860;SDS011;4969;52.304;4.968;2024-03-08T04:31:43;18.10;;;15.90;;
9860;SDS011;4969;52.304;4.968;2024-03-08T04:34:10;16.83;;;15.23;;
9860;SDS011;4969;52.304;4.968;2024-03-08T04:36:38;15.73;;;14.13;;
9860;SDS011;4969;52.304;4.968;2024-03-08T04:39:05;15.73;;;14.13;;
9860;SDS011;4969;52.304;4.968;2024-03-08T04:41:35;16.08;;;14.20;;
9860;SDS011;4969;52.304;4.968;2024-03-08T04:44:03;16.88;;;15.20;;
9860;SDS011;4969;52.304;4.968;2024-03-08T04:46:30;16.60;;;15.07;;
9860;SDS011;4969;52.304;4.968;2024-03-08T04:48:56;16.40;;;14.80;;
9860;SDS011;4969;52.304;4.968;2024-03-08T04:51:24;16.33;;;14.80;;
9860;SDS011;4969;52.304;4.968;2024-03-08T04:53:52;14.60;;;13.27;;
9860;SDS011;4969;52.304;4.968;2024-03-08T04:56:19;15.23;;;13.73;;
9860;SDS011;4969;52.304;4.968;2024-03-08T04:58:46;16.67;;;15.07;;
9860;SDS011;4969;52.304;4.968;2024-03-08T05:01:13;17.05;;;15.45;;
9860;SDS011;4969;52.304;4.968;2024-03-08T05:03:39;17.50;;;15.73;;
9860;SDS011;4969;52.304;4.968;2024-03-08T05:06:06;16.83;;;15.13;;
9860;SDS011;4969;52.304;4.968;2024-03-08T05:08:33;17.88;;;16.10;;
9860;SDS011;4969;52.304;4.968;2024-03-08T05:11:01;18.70;;;16.90;;
9860;SDS011;4969;52.304;4.968;2024-03-08T05:13:29;16.20;;;14.68;;
9860;SDS011;4969;52.304;4.968;2024-03-08T05:15:56;15.82;;;14.30;;
9860;SDS011;4969;52.304;4.968;2024-03-08T05:18:23;15.75;;;14.27;;
9860;SDS011;4969;52.304;4.968;2024-03-08T05:20:50;16.83;;;15.02;;
9860;SDS011;4969;52.304;4.968;2024-03-08T05:23:17;17.05;;;15.48;;
9860;SDS011;4969;52.304;4.968;2024-03-08T05:25:44;17.98;;;16.27;;
9860;SDS011;4969;52.304;4.968;2024-03-08T05:28:13;14.68;;;13.27;;
9860;SDS011;4969;52.304;4.968;2024-03-08T05:30:39;17.58;;;15.90;;
9860;SDS011;4969;52.304;4.968;2024-03-08T05:33:06;16.27;;;14.68;;
9860;SDS011;4969;52.304;4.968;2024-03-08T05:35:35;16.08;;;14.57;;
9860;SDS011;4969;52.304;4.968;2024-03-08T05:38:02;15.07;;;13.57;;
9860;SDS011;4969;52.304;4.968;2024-03-08T05:40:29;17.27;;;15.68;;
9860;SDS011;4969;52.304;4.968;2024-03-08T05:42:57;17.88;;;16.17;;
9860;SDS011;4969;52.304;4.968;2024-03-08T05:45:25;17.00;;;15.30;;
9860;SDS011;4969;52.304;4.968;2024-03-08T05:47:51;16.63;;;15.02;;
9860;SDS011;4969;52.304;4.968;2024-03-08T05:50:18;18.13;;;16.10;;
9860;SDS011;4969;52.304;4.968;2024-03-08T05:52:45;16.80;;;15.20;;
9860;SDS011;4969;52.304;4.968;2024-03-08T05:55:12;17.43;;;15.50;;
9860;SDS011;4969;52.304;4.968;2024-03-08T05:57:39;16.17;;;14.57;;
9860;SDS011;4969;52.304;4.968;2024-03-08T06:00:07;16.42;;;14.82;;
9860;SDS011;4969;52.304;4.968;2024-03-08T06:02:37;16.05;;;14.45;;
9860;SDS011;4969;52.304;4.968;2024-03-08T06:05:07;15.75;;;14.30;;
9860;SDS011;4969;52.304;4.968;2024-03-08T06:07:34;16.40;;;14.82;;
9860;SDS011;4969;52.304;4.968;2024-03-08T06:10:01;16.10;;;14.70;;
9860;SDS011;4969;52.304;4.968;2024-03-08T06:12:28;18.02;;;16.42;;
9860;SDS011;4969;52.304;4.968;2024-03-08T06:14:58;17.67;;;15.80;;
9860;SDS011;4969;52.304;4.968;2024-03-08T06:17:25;16.55;;;15.07;;
9860;SDS011;4969;52.304;4.968;2024-03-08T06:19:53;17.48;;;15.68;;
9860;SDS011;4969;52.304;4.968;2024-03-08T06:22:20;14.63;;;13.32;;
9860;SDS011;4969;52.304;4.968;2024-03-08T06:24:46;17.73;;;15.85;;
9860;SDS011;4969;52.304;4.968;2024-03-08T06:27:13;16.15;;;14.55;;
9860;SDS011;4969;52.304;4.968;2024-03-08T06:29:40;18.42;;;16.58;;
9860;SDS011;4969;52.304;4.968;2024-03-08T06:32:06;16.40;;;14.65;;
9860;SDS011;4969;52.304;4.968;2024-03-08T06:34:33;17.30;;;15.70;;
9860;SDS011;4969;52.304;4.968;2024-03-08T06:37:02;17.27;;;15.55;;
9860;SDS011;4969;52.304;4.968;2024-03-08T06:39:28;17.55;;;15.95;;
9860;SDS011;4969;52.304;4.968;2024-03-08T06:41:56;17.40;;;15.80;;
9860;SDS011;4969;52.304;4.968;2024-03-08T06:44:23;16.80;;;15.10;;
9860;SDS011;4969;52.304;4.968;2024-03-08T06:46:50;16.77;;;15.23;;
9860;SDS011;4969;52.304;4.968;2024-03-08T06:49:17;17.88;;;16.15;;
9860;SDS011;4969;52.304;4.968;2024-03-08T06:51:44;17.52;;;15.93;;
9860;SDS011;4969;52.304;4.968;2024-03-08T06:54:12;15.27;;;13.75;;
9860;SDS011;4969;52.304;4.968;2024-03-08T06:56:39;18.83;;;16.95;;
9860;SDS011;4969;52.304;4.968;2024-03-08T06:59:06;17.00;;;15.32;;
9860;SDS011;4969;52.304;4.968;2024-03-08T07:01:35;16.58;;;14.98;;
9860;SDS011;4969;52.304;4.968;2024-03-08T07:04:03;16.65;;;15.05;;
9860;SDS011;4969;52.304;4.968;2024-03-08T07:06:31;19.40;;;17.42;;
9860;SDS011;4969;52.304;4.968;2024-03-08T07:08:58;17.20;;;15.48;;
9860;SDS011;4969;52.304;4.968;2024-03-08T07:11:26;17.15;;;15.52;;
9860;SDS011;4969;52.304;4.968;2024-03-08T07:13:53;15.57;;;14.07;;
9860;SDS011;4969;52.304;4.968;2024-03-08T07:16:20;16.77;;;15.18;;
9860;SDS011;4969;52.304;4.968;2024-03-08T07:18:47;16.42;;;14.82;;
9860;SDS011;4969;52.304;4.968;2024-03-08T07:21:17;14.98;;;13.55;;
9860;SDS011;4969;52.304;4.968;2024-03-08T07:23:44;15.88;;;14.32;;
9860;SDS011;4969;52.304;4.968;2024-03-08T07:26:39;15.77;;;14.18;;
9860;SDS011;4969;52.304;4.968;2024-03-08T07:29:06;15.32;;;13.93;;
9860;SDS011;4969;52.304;4.968;2024-03-08T07:31:33;17.13;;;15.52;;
9860;SDS011;4969;52.304;4.968;2024-03-08T07:34:09;15.90;;;14.40;;
9860;SDS011;4969;52.304;4.968;2024-03-08T07:36:36;17.98;;;16.15;;
9860;SDS011;4969;52.304;4.968;2024-03-08T07:39:03;18.50;;;16.80;;
9860;SDS011;4969;52.304;4.968;2024-03-08T07:41:30;19.00;;;17.27;;
9860;SDS011;4969;52.304;4.968;2024-03-08T07:44:00;17.50;;;15.73;;
9860;SDS011;4969;52.304;4.968;2024-03-08T07:46:28;17.15;;;15.40;;
9860;SDS011;4969;52.304;4.968;2024-03-08T07:48:55;17.63;;;15.88;;
9860;SDS011;4969;52.304;4.968;2024-03-08T07:51:22;12.73;;;11.50;;
9860;SDS011;4969;52.304;4.968;2024-03-08T07:53:48;20.20;;;18.25;;
9860;SDS011;4969;52.304;4.968;2024-03-08T07:56:15;18.17;;;16.42;;
9860;SDS011;4969;52.304;4.968;2024-03-08T07:58:43;19.55;;;17.55;;
9860;SDS011;4969;52.304;4.968;2024-03-08T08:01:16;17.73;;;16.08;;
9860;SDS011;4969;52.304;4.968;2024-03-08T08:03:43;17.25;;;15.65;;
9860;SDS011;4969;52.304;4.968;2024-03-08T08:06:10;18.27;;;16.45;;
9860;SDS011;4969;52.304;4.968;2024-03-08T08:08:41;19.17;;;17.38;;
9860;SDS011;4969;52.304;4.968;2024-03-08T08:11:07;17.00;;;15.40;;
9860;SDS011;4969;52.304;4.968;2024-03-08T08:13:36;16.55;;;14.98;;
9860;SDS011;4969;52.304;4.968;2024-03-08T08:16:04;18.13;;;14.23;;
9860;SDS011;4969;52.304;4.968;2024-03-08T08:18:33;19.10;;;17.30;;
9860;SDS011;4969;52.304;4.968;2024-03-08T08:21:01;18.85;;;17.08;;
9860;SDS011;4969;52.304;4.968;2024-03-08T08:23:27;18.08;;;16.27;;
9860;SDS011;4969;52.304;4.968;2024-03-08T08:25:54;18.38;;;16.58;;
9860;SDS011;4969;52.304;4.968;2024-03-08T08:28:21;20.98;;;18.95;;
9860;SDS011;4969;52.304;4.968;2024-03-08T08:30:48;17.33;;;15.60;;
9860;SDS011;4969;52.304;4.968;2024-03-08T08:33:15;20.10;;;18.02;;
9860;SDS011;4969;52.304;4.968;2024-03-08T08:35:43;18.65;;;16.98;;
9860;SDS011;4969;52.304;4.968;2024-03-08T08:38:09;16.77;;;15.18;;
9860;SDS011;4969;52.304;4.968;2024-03-08T08:40:36;18.60;;;16.52;;
9860;SDS011;4969;52.304;4.968;2024-03-08T08:43:03;20.17;;;18.17;;
9860;SDS011;4969;52.304;4.968;2024-03-08T08:45:30;16.05;;;14.45;;
9860;SDS011;4969;52.304;4.968;2024-03-08T08:47:57;17.80;;;16.08;;
9860;SDS011;4969;52.304;4.968;2024-03-08T08:50:25;17.67;;;15.95;;
9860;SDS011;4969;52.304;4.968;2024-03-08T08:52:55;19.42;;;17.55;;
9860;SDS011;4969;52.304;4.968;2024-03-08T08:55:22;19.98;;;18.10;;
9860;SDS011;4969;52.304;4.968;2024-03-08T08:57:50;19.67;;;17.77;;
9860;SDS011;4969;52.304;4.968;2024-03-08T09:00:18;18.63;;;16.20;;
9860;SDS011;4969;52.304;4.968;2024-03-08T09:02:45;16.40;;;14.80;;
9860;SDS011;4969;52.304;4.968;2024-03-08T09:05:13;18.33;;;16.52;;
9860;SDS011;4969;52.304;4.968;2024-03-08T09:07:41;16.73;;;15.05;;
9860;SDS011;4969;52.304;4.968;2024-03-08T09:10:10;17.98;;;16.17;;
9860;SDS011;4969;52.304;4.968;2024-03-08T09:12:39;17.42;;;15.60;;
9860;SDS011;4969;52.304;4.968;2024-03-08T09:15:06;18.70;;;16.80;;
9860;SDS011;4969;52.304;4.968;2024-03-08T09:17:36;19.38;;;17.58;;
9860;SDS011;4969;52.304;4.968;2024-03-08T09:20:05;17.63;;;16.10;;
9860;SDS011;4969;52.304;4.968;2024-03-08T09:22:32;20.00;;;18.17;;
9860;SDS011;4969;52.304;4.968;2024-03-08T09:24:58;20.08;;;18.10;;
9860;SDS011;4969;52.304;4.968;2024-03-08T09:27:26;18.67;;;17.02;;
9860;SDS011;4969;52.304;4.968;2024-03-08T09:29:53;16.40;;;14.93;;
9860;SDS011;4969;52.304;4.968;2024-03-08T09:32:20;17.50;;;15.90;;
9860;SDS011;4969;52.304;4.968;2024-03-08T09:34:47;18.58;;;16.67;;
9860;SDS011;4969;52.304;4.968;2024-03-08T09:37:15;17.92;;;16.20;;
9860;SDS011;4969;52.304;4.968;2024-03-08T09:39:42;16.40;;;14.90;;
9860;SDS011;4969;52.304;4.968;2024-03-08T09:42:09;17.73;;;15.95;;
9860;SDS011;4969;52.304;4.968;2024-03-08T09:44:41;16.67;;;15.13;;
9860;SDS011;4969;52.304;4.968;2024-03-08T09:47:11;19.88;;;18.00;;
9860;SDS011;4969;52.304;4.968;2024-03-08T09:49:40;16.15;;;14.70;;
9860;SDS011;4969;52.304;4.968;2024-03-08T09:52:07;17.83;;;16.23;;
9860;SDS011;4969;52.304;4.968;2024-03-08T09:54:35;17.80;;;16.00;;
9860;SDS011;4969;52.304;4.968;2024-03-08T09:57:02;20.73;;;18.73;;
9860;SDS011;4969;52.304;4.968;2024-03-08T09:59:30;19.92;;;18.02;;
9860;SDS011;4969;52.304;4.968;2024-03-08T10:02:12;16.48;;;14.75;;
9860;SDS011;4969;52.304;4.968;2024-03-08T10:04:41;19.00;;;17.10;;
9860;SDS011;4969;52.304;4.968;2024-03-08T10:07:08;19.05;;;17.25;;
9860;SDS011;4969;52.304;4.968;2024-03-08T10:09:35;18.10;;;16.50;;
9860;SDS011;4969;52.304;4.968;2024-03-08T10:12:01;16.10;;;14.48;;
9860;SDS011;4969;52.304;4.968;2024-03-08T10:14:29;17.77;;;16.17;;
9860;SDS011;4969;52.304;4.968;2024-03-08T10:16:56;18.05;;;16.35;;
9860;SDS011;4969;52.304;4.968;2024-03-08T10:19:26;15.95;;;14.43;;
9860;SDS011;4969;52.304;4.968;2024-03-08T10:21:55;15.18;;;13.48;;
9860;SDS011;4969;52.304;4.968;2024-03-08T10:24:23;17.52;;;15.82;;
9860;SDS011;4969;52.304;4.968;2024-03-08T10:26:53;17.25;;;15.65;;
9860;SDS011;4969;52.304;4.968;2024-03-08T10:29:21;15.98;;;14.48;;
9860;SDS011;4969;52.304;4.968;2024-03-08T10:31:48;18.23;;;16.52;;
9860;SDS011;4969;52.304;4.968;2024-03-08T10:34:15;20.70;;;18.60;;
9860;SDS011;4969;52.304;4.968;2024-03-08T10:36:43;20.63;;;18.63;;
9860;SDS011;4969;52.304;4.968;2024-03-08T10:39:13;19.00;;;17.30;;
9860;SDS011;4969;52.304;4.968;2024-03-08T10:41:46;19.60;;;17.70;;
9860;SDS011;4969;52.304;4.968;2024-03-08T10:44:18;19.70;;;17.83;;
9860;SDS011;4969;52.304;4.968;2024-03-08T10:47:01;17.58;;;15.98;;
9860;SDS011;4969;52.304;4.968;2024-03-08T10:49:30;17.20;;;15.65;;
9860;SDS011;4969;52.304;4.968;2024-03-08T10:52:05;16.73;;;15.18;;
9860;SDS011;4969;52.304;4.968;2024-03-08T10:54:33;14.93;;;13.52;;
9860;SDS011;4969;52.304;4.968;2024-03-08T10:57:01;19.63;;;17.83;;
9860;SDS011;4969;52.304;4.968;2024-03-08T10:59:33;17.48;;;15.75;;
9860;SDS011;4969;52.304;4.968;2024-03-08T11:02:00;17.83;;;15.93;;
9860;SDS011;4969;52.304;4.968;2024-03-08T11:04:30;18.45;;;16.65;;
9860;SDS011;4969;52.304;4.968;2024-03-08T11:07:00;18.40;;;16.60;;
9860;SDS011;4969;52.304;4.968;2024-03-08T11:09:32;18.10;;;16.40;;
9860;SDS011;4969;52.304;4.968;2024-03-08T11:12:21;18.50;;;16.95;;
9860;SDS011;4969;52.304;4.968;2024-03-08T11:14:50;15.82;;;14.30;;
9860;SDS011;4969;52.304;4.968;2024-03-08T11:17:20;14.90;;;13.43;;
9860;SDS011;4969;52.304;4.968;2024-03-08T11:19:48;18.15;;;16.45;;
9860;SDS011;4969;52.304;4.968;2024-03-08T11:22:20;19.17;;;17.40;;
9860;SDS011;4969;52.304;4.968;2024-03-08T11:24:53;12.88;;;11.73;;
9860;SDS011;4969;52.304;4.968;2024-03-08T11:27:20;17.88;;;16.17;;
9860;SDS011;4969;52.304;4.968;2024-03-08T11:29:58;17.52;;;15.93;;
9860;SDS011;4969;52.304;4.968;2024-03-08T11:32:33;18.52;;;16.73;;
9860;SDS011;4969;52.304;4.968;2024-03-08T11:35:01;19.45;;;17.55;;
9860;SDS011;4969;52.304;4.968;2024-03-08T11:37:34;17.67;;;15.77;;
9860;SDS011;4969;52.304;4.968;2024-03-08T11:40:02;14.90;;;13.35;;
9860;SDS011;4969;52.304;4.968;2024-03-08T11:42:43;18.45;;;16.52;;
9860;SDS011;4969;52.304;4.968;2024-03-08T11:45:11;18.60;;;16.80;;
9860;SDS011;4969;52.304;4.968;2024-03-08T11:47:38;15.02;;;13.57;;
9860;SDS011;4969;52.304;4.968;2024-03-08T11:50:06;14.95;;;13.52;;
9860;SDS011;4969;52.304;4.968;2024-03-08T11:52:36;17.05;;;15.50;;
9860;SDS011;4969;52.304;4.968;2024-03-08T11:55:05;15.68;;;14.18;;
9860;SDS011;4969;52.304;4.968;2024-03-08T11:57:32;16.33;;;14.73;;
9860;SDS011;4969;52.304;4.968;2024-03-08T11:59:59;16.90;;;15.30;;
9860;SDS011;4969;52.304;4.968;2024-03-08T12:02:32;15.70;;;14.20;;
9860;SDS011;4969;52.304;4.968;2024-03-08T12:05:00;19.15;;;17.25;;
9860;SDS011;4969;52.304;4.968;2024-03-08T12:07:28;18.65;;;16.85;;
9860;SDS011;4969;52.304;4.968;2024-03-08T12:10:17;17.35;;;15.48;;
9860;SDS011;4969;52.304;4.968;2024-03-08T12:12:45;18.90;;;16.92;;
9860;SDS011;4969;52.304;4.968;2024-03-08T12:15:12;17.42;;;15.75;;
9860;SDS011;4969;52.304;4.968;2024-03-08T12:17:40;18.33;;;16.65;;
9860;SDS011;4969;52.304;4.968;2024-03-08T12:20:12;16.02;;;14.63;;
9860;SDS011;4969;52.304;4.968;2024-03-08T12:22:41;16.40;;;14.63;;
9860;SDS011;4969;52.304;4.968;2024-03-08T12:25:09;17.65;;;15.93;;
9860;SDS011;4969;52.304;4.968;2024-03-08T12:27:39;15.63;;;13.88;;
9860;SDS011;4969;52.304;4.968;2024-03-08T12:32:54;15.75;;;14.25;;
9860;SDS011;4969;52.304;4.968;2024-03-08T12:35:23;12.05;;;10.95;;
9860;SDS011;4969;52.304;4.968;2024-03-08T12:37:51;14.88;;;12.45;;
9860;SDS011;4969;52.304;4.968;2024-03-08T12:40:19;11.05;;;9.90;;
9860;SDS011;4969;52.304;4.968;2024-03-08T12:42:53;13.20;;;11.95;;
9860;SDS011;4969;52.304;4.968;2024-03-08T12:45:20;14.85;;;13.55;;
9860;SDS011;4969;52.304;4.968;2024-03-08T12:47:49;12.35;;;11.23;;
9860;SDS011;4969;52.304;4.968;2024-03-08T12:50:16;12.93;;;11.73;;
9860;SDS011;4969;52.304;4.968;2024-03-08T12:52:43;12.48;;;11.38;;
9860;SDS011;4969;52.304;4.968;2024-03-08T12:55:10;12.18;;;10.90;;
9860;SDS011;4969;52.304;4.968;2024-03-08T12:57:37;12.05;;;10.95;;
9860;SDS011;4969;52.304;4.968;2024-03-08T13:00:06;12.43;;;11.23;;
9860;SDS011;4969;52.304;4.968;2024-03-08T13:02:38;11.13;;;10.15;;
9860;SDS011;4969;52.304;4.968;2024-03-08T13:05:05;12.80;;;11.60;;
9860;SDS011;4969;52.304;4.968;2024-03-08T13:07:34;12.02;;;10.93;;
9860;SDS011;4969;52.304;4.968;2024-03-08T13:10:02;11.55;;;10.40;;
9860;SDS011;4969;52.304;4.968;2024-03-08T13:12:30;12.13;;;10.93;;
9860;SDS011;4969;52.304;4.968;2024-03-08T13:14:56;13.65;;;12.43;;
9860;SDS011;4969;52.304;4.968;2024-03-08T13:17:24;13.43;;;12.27;;
9860;SDS011;4969;52.304;4.968;2024-03-08T13:19:51;13.90;;;12.70;;
9860;SDS011;4969;52.304;4.968;2024-03-08T13:22:22;13.57;;;12.38;;
9860;SDS011;4969;52.304;4.968;2024-03-08T13:24:49;12.60;;;11.40;;
9860;SDS011;4969;52.304;4.968;2024-03-08T13:27:17;13.50;;;12.20;;
9860;SDS011;4969;52.304;4.968;2024-03-08T13:29:46;13.50;;;11.52;;
9860;SDS011;4969;52.304;4.968;2024-03-08T13:32:14;11.02;;;10.02;;
9860;SDS011;4969;52.304;4.968;2024-03-08T13:34:43;14.63;;;13.18;;
9860;SDS011;4969;52.304;4.968;2024-03-08T13:37:10;14.07;;;11.88;;
9860;SDS011;4969;52.304;4.968;2024-03-08T13:39:37;13.18;;;11.90;;
9860;SDS011;4969;52.304;4.968;2024-03-08T13:42:09;14.27;;;12.82;;
9860;SDS011;4969;52.304;4.968;2024-03-08T13:44:38;13.73;;;12.52;;
9860;SDS011;4969;52.304;4.968;2024-03-08T13:47:06;12.90;;;11.65;;
9860;SDS011;4969;52.304;4.968;2024-03-08T13:49:32;13.73;;;12.43;;
9860;SDS011;4969;52.304;4.968;2024-03-08T13:52:01;15.18;;;13.55;;
9860;SDS011;4969;52.304;4.968;2024-03-08T13:54:27;14.10;;;12.90;;
9860;SDS011;4969;52.304;4.968;2024-03-08T13:56:56;13.77;;;12.52;;
9860;SDS011;4969;52.304;4.968;2024-03-08T13:59:23;13.43;;;11.98;;
9860;SDS011;4969;52.304;4.968;2024-03-08T14:01:54;13.90;;;12.50;;
9860;SDS011;4969;52.304;4.968;2024-03-08T14:04:21;15.55;;;12.77;;
9860;SDS011;4969;52.304;4.968;2024-03-08T14:06:49;11.82;;;10.65;;
9860;SDS011;4969;52.304;4.968;2024-03-08T14:09:18;10.00;;;9.02;;
9860;SDS011;4969;52.304;4.968;2024-03-08T14:11:44;13.43;;;12.00;;
9860;SDS011;4969;52.304;4.968;2024-03-08T14:14:11;13.93;;;12.52;;
9860;SDS011;4969;52.304;4.968;2024-03-08T14:16:38;13.90;;;12.65;;
9860;SDS011;4969;52.304;4.968;2024-03-08T14:19:05;16.52;;;14.93;;
9860;SDS011;4969;52.304;4.968;2024-03-08T14:21:31;13.15;;;11.82;;
9860;SDS011;4969;52.304;4.968;2024-03-08T14:23:58;15.70;;;14.30;;
9860;SDS011;4969;52.304;4.968;2024-03-08T14:26:26;13.13;;;11.82;;
9860;SDS011;4969;52.304;4.968;2024-03-08T14:28:53;12.52;;;11.25;;
9860;SDS011;4969;52.304;4.968;2024-03-08T14:31:20;14.68;;;13.18;;
9860;SDS011;4969;52.304;4.968;2024-03-08T14:33:50;14.05;;;12.73;;
9860;SDS011;4969;52.304;4.968;2024-03-08T14:36:16;13.95;;;12.75;;
9860;SDS011;4969;52.304;4.968;2024-03-08T14:38:44;15.00;;;13.60;;
9860;SDS011;4969;52.304;4.968;2024-03-08T14:41:12;11.65;;;10.38;;
9860;SDS011;4969;52.304;4.968;2024-03-08T14:43:41;14.20;;;12.90;;
9860;SDS011;4969;52.304;4.968;2024-03-08T14:46:10;13.90;;;12.50;;
9860;SDS011;4969;52.304;4.968;2024-03-08T14:48:39;14.02;;;12.73;;
9860;SDS011;4969;52.304;4.968;2024-03-08T14:51:06;13.02;;;11.32;;
9860;SDS011;4969;52.304;4.968;2024-03-08T14:53:35;14.02;;;12.80;;
9860;SDS011;4969;52.304;4.968;2024-03-08T14:56:04;17.02;;;15.25;;